createdAt,value
2017-07-08T00:00:58.654Z,100518.47
2017-07-08T00:03:27.737Z,100514.29
2017-07-08T00:05:56.820Z,100514.47
2017-07-08T00:08:25.900Z,100514.44
2017-07-08T00:10:54.988Z,100515.77
2017-07-08T00:13:24.048Z,100520.69
2017-07-08T00:15:53.108Z,100517.12
2017-07-08T00:18:22.178Z,100509.42
2017-07-08T00:20:51.232Z,100507.64
2017-07-08T00:23:20.340Z,100516.93
2017-07-08T00:25:49.426Z,100509.84
2017-07-08T00:28:18.484Z,100511.81
2017-07-08T00:30:47.645Z,100509.05
2017-07-08T00:33:16.691Z,100512.44
2017-07-08T00:35:45.784Z,100510.86
2017-07-08T00:38:14.847Z,100514.22
2017-07-08T00:40:43.914Z,100513.82
2017-07-08T00:43:13.022Z,100510.69
2017-07-08T00:45:42.068Z,100509.87
2017-07-08T00:48:11.174Z,100504.11
2017-07-08T00:50:40.239Z,100501.34
2017-07-08T00:53:09.310Z,100504.31
2017-07-08T00:55:38.395Z,100505.10
2017-07-08T00:58:07.474Z,100513.77
2017-07-08T01:00:36.515Z,100511.40
2017-07-08T01:03:05.597Z,100516.73
2017-07-08T01:05:34.658Z,100520.88
2017-07-08T01:08:03.724Z,100515.15
2017-07-08T01:10:32.811Z,100511.40
2017-07-08T01:13:01.943Z,100517.33
2017-07-08T01:15:31.014Z,100501.30
2017-07-08T01:18:00.092Z,100505.84
2017-07-08T01:20:29.152Z,100497.14
2017-07-08T01:22:58.246Z,100502.67
2017-07-08T01:25:27.316Z,100502.48
2017-07-08T01:27:56.384Z,100497.14
2017-07-08T01:30:25.457Z,100498.55
2017-07-08T01:32:54.516Z,100501.32
2017-07-08T01:35:23.625Z,100501.52
2017-07-08T01:37:52.697Z,100497.73
2017-07-08T01:40:21.815Z,100504.82
2017-07-08T01:42:51.136Z,100503.23
2017-07-08T01:45:20.344Z,100505.18
2017-07-08T01:47:49.412Z,100495.90
2017-07-08T01:50:18.533Z,100499.62
2017-07-08T01:52:47.614Z,100498.83
2017-07-08T01:55:16.686Z,100497.05
2017-07-08T01:57:45.761Z,100487.14
2017-07-08T02:00:14.867Z,100486.08
2017-07-08T02:02:43.907Z,100488.41
2017-07-08T02:05:13.133Z,100484.03
2017-07-08T02:07:42.216Z,100483.16
2017-07-08T02:10:11.345Z,100474.98
2017-07-08T02:12:40.401Z,100476.37
2017-07-08T02:15:09.469Z,100476.55
2017-07-08T02:17:38.537Z,100480.89
2017-07-08T02:20:07.650Z,100478.33
2017-07-08T02:22:36.696Z,100488.75
2017-07-08T02:25:05.753Z,100486.73
2017-07-08T02:27:34.830Z,100484.94
2017-07-08T02:30:03.883Z,100488.05
2017-07-08T02:32:33.014Z,100483.06
2017-07-08T02:35:02.127Z,100481.48
2017-07-08T02:37:31.168Z,100475.31
2017-07-08T02:40:00.259Z,100481.42
2017-07-08T02:42:29.336Z,100478.22
2017-07-08T02:44:58.391Z,100477.03
2017-07-08T02:47:27.483Z,100478.20
2017-07-08T02:49:56.517Z,100471.05
2017-07-08T02:52:25.608Z,100475.38
2017-07-08T02:54:54.674Z,100470.40
2017-07-08T02:57:23.769Z,100466.59
2017-07-08T02:59:52.840Z,100470.75
2017-07-08T03:02:22.125Z,100468.81
2017-07-08T03:04:51.243Z,100477.44
2017-07-08T03:07:20.329Z,100476.86
2017-07-08T03:09:49.438Z,100478.22
2017-07-08T03:12:18.506Z,100478.23
2017-07-08T03:14:47.591Z,100481.38
2017-07-08T03:17:16.655Z,100477.63
2017-07-08T03:19:45.928Z,100481.17
2017-07-08T03:22:15.023Z,100474.38
2017-07-08T03:24:44.095Z,100475.17
2017-07-08T03:27:13.190Z,100474.98
2017-07-08T03:29:42.227Z,100478.72
2017-07-08T03:32:11.295Z,100477.92
2017-07-08T03:34:40.386Z,100479.48
2017-07-08T03:37:09.440Z,100473.92
2017-07-08T03:39:38.540Z,100475.29
2017-07-08T03:42:07.605Z,100479.02
2017-07-08T03:44:36.689Z,100477.02
2017-07-08T03:47:05.739Z,100479.57
2017-07-08T03:49:34.798Z,100483.17
2017-07-08T03:52:03.904Z,100483.96
2017-07-08T03:54:32.986Z,100488.91
2017-07-08T03:57:02.048Z,100492.50
2017-07-08T03:59:31.123Z,100492.02
2017-07-08T04:02:00.175Z,100491.68
2017-07-08T04:04:29.237Z,100491.90
2017-07-08T04:06:58.312Z,100490.38
2017-07-08T04:09:27.373Z,100490.96
2017-07-08T04:11:57.064Z,100498.86
2017-07-08T04:14:27.285Z,100490.23
2017-07-08T04:16:57.976Z,100485.11
2017-07-08T04:19:27.062Z,100485.70
2017-07-08T04:21:56.125Z,100483.67
2017-07-08T04:24:25.209Z,100491.90
2017-07-08T04:26:54.304Z,100494.66
2017-07-08T04:29:23.380Z,100504.57
2017-07-08T04:31:52.455Z,100511.48
2017-07-08T04:34:21.528Z,100516.73
2017-07-08T04:36:50.588Z,100521.53
2017-07-08T04:39:19.671Z,100521.13
2017-07-08T04:41:48.753Z,100521.00
2017-07-08T04:44:17.813Z,100516.67
2017-07-08T04:46:46.915Z,100520.88
2017-07-08T04:49:15.956Z,100521.73
2017-07-08T04:51:45.039Z,100529.36
2017-07-08T04:54:14.214Z,100535.47
2017-07-08T04:56:44.153Z,100533.62
2017-07-08T04:59:13.250Z,100532.44
2017-07-08T05:01:42.305Z,100536.00
2017-07-08T05:04:11.404Z,100535.45
2017-07-08T05:06:40.487Z,100530.64
2017-07-08T05:09:09.564Z,100531.73
2017-07-08T05:11:38.655Z,100531.13
2017-07-08T05:14:07.868Z,100534.02
2017-07-08T05:16:36.942Z,100536.00
2017-07-08T05:19:05.997Z,100546.11
2017-07-08T05:21:35.105Z,100543.03
2017-07-08T05:24:04.216Z,100542.37
2017-07-08T05:26:33.325Z,100538.53
2017-07-08T05:29:02.399Z,100541.08
2017-07-08T05:31:31.460Z,100541.67
2017-07-08T05:34:00.599Z,100538.52
2017-07-08T05:36:29.634Z,100544.89
2017-07-08T05:38:58.741Z,100535.65
2017-07-08T05:41:27.834Z,100538.27
2017-07-08T05:43:56.868Z,100538.56
2017-07-08T05:46:25.941Z,100537.64
2017-07-08T05:48:55.022Z,100536.16
2017-07-08T05:51:24.093Z,100531.30
2017-07-08T05:53:53.206Z,100536.05
2017-07-08T05:56:22.283Z,100534.34
2017-07-08T05:58:51.347Z,100533.97
2017-07-08T06:01:20.413Z,100534.75
2017-07-08T06:03:49.481Z,100531.84
2017-07-08T06:06:18.799Z,100527.89
2017-07-08T06:08:47.852Z,100520.33
2017-07-08T06:11:16.959Z,100520.80
2017-07-08T06:13:46.049Z,100523.27
2017-07-08T06:16:15.358Z,100522.80
2017-07-08T06:18:44.501Z,100524.09
2017-07-08T06:21:13.593Z,100515.92
2017-07-08T06:23:42.644Z,100516.32
2017-07-08T06:26:11.793Z,100520.39
2017-07-08T06:28:40.852Z,100521.77
2017-07-08T06:31:09.916Z,100522.17
2017-07-08T06:33:39.019Z,100530.34
2017-07-08T06:36:08.154Z,100517.36
2017-07-08T06:38:37.260Z,100520.20
2017-07-08T06:41:06.466Z,100518.25
2017-07-08T06:43:35.543Z,100520.09
2017-07-08T06:46:04.605Z,100519.11
2017-07-08T06:48:33.676Z,100519.70
2017-07-08T06:51:02.774Z,100518.53
2017-07-08T06:53:31.828Z,100525.91
2017-07-08T06:56:00.900Z,100523.02
2017-07-08T06:58:29.961Z,100517.66
2017-07-08T07:00:59.012Z,100512.94
2017-07-08T07:03:28.134Z,100517.89
2017-07-08T07:05:57.202Z,100521.48
2017-07-08T07:08:26.293Z,100516.75
2017-07-08T07:10:55.343Z,100517.36
2017-07-08T07:13:24.544Z,100514.20
2017-07-08T07:15:53.713Z,100521.94
2017-07-08T07:18:22.794Z,100511.44
2017-07-08T07:20:51.865Z,100514.78
2017-07-08T07:23:20.943Z,100523.28
2017-07-08T07:25:50.007Z,100527.23
2017-07-08T07:28:19.097Z,100525.84
2017-07-08T07:30:48.165Z,100531.19
2017-07-08T07:33:17.243Z,100532.37
2017-07-08T07:35:46.317Z,100541.69
2017-07-08T07:38:15.437Z,100554.57
2017-07-08T07:40:44.512Z,100559.92
2017-07-08T07:43:13.793Z,100570.23
2017-07-08T07:45:42.872Z,100570.81
2017-07-08T07:48:11.909Z,100576.37
2017-07-08T07:50:40.981Z,100569.41
2017-07-08T07:53:10.053Z,100566.42
2017-07-08T07:55:39.149Z,100561.84
2017-07-08T07:58:08.260Z,100561.80
2017-07-08T08:00:37.316Z,100570.05
2017-07-08T08:03:06.417Z,100565.50
2017-07-08T08:05:35.453Z,100560.97
2017-07-08T08:08:04.547Z,100552.20
2017-07-08T08:10:33.619Z,100560.16
2017-07-08T08:13:02.737Z,100561.17
2017-07-08T08:15:31.802Z,100566.13
2017-07-08T08:18:00.903Z,100567.75
2017-07-08T08:20:29.972Z,100570.57
2017-07-08T08:22:59.042Z,100575.73
2017-07-08T08:25:28.148Z,100577.49
2017-07-08T08:27:57.215Z,100576.66
2017-07-08T08:30:26.297Z,100587.76
2017-07-08T08:32:55.391Z,100579.19
2017-07-08T08:35:24.444Z,100582.14
2017-07-08T08:37:53.510Z,100585.52
2017-07-08T08:40:22.586Z,100582.18
2017-07-08T08:42:51.672Z,100583.96
2017-07-08T08:45:20.733Z,100581.36
2017-07-08T08:47:49.789Z,100582.38
2017-07-08T08:50:18.888Z,100581.62
2017-07-08T08:52:47.953Z,100585.60
2017-07-08T08:55:17.071Z,100577.91
2017-07-08T08:57:46.105Z,100573.95
2017-07-08T09:00:15.192Z,100577.48
2017-07-08T09:02:44.276Z,100576.68
2017-07-08T09:05:13.376Z,100572.83
2017-07-08T09:07:42.483Z,100563.48
2017-07-08T09:10:12.702Z,100573.24
2017-07-08T09:12:41.749Z,100574.77
2017-07-08T09:15:10.861Z,100575.14
2017-07-08T09:17:39.959Z,100573.68
2017-07-08T09:20:09.051Z,100571.97
2017-07-08T09:22:38.099Z,100575.62
2017-07-08T09:25:07.179Z,100575.25
2017-07-08T09:27:36.437Z,100575.92
2017-07-08T09:30:05.493Z,100583.95
2017-07-08T09:32:34.621Z,100585.70
2017-07-08T09:35:03.687Z,100580.53
2017-07-08T09:37:32.744Z,100581.12
2017-07-08T09:40:01.857Z,100572.41
2017-07-08T09:42:30.932Z,100578.03
2017-07-08T09:45:00.085Z,100566.56
2017-07-08T09:47:29.237Z,100571.75
2017-07-08T09:49:58.305Z,100576.67
2017-07-08T09:52:28.135Z,100574.44
2017-07-08T09:54:57.189Z,100569.52
2017-07-08T09:57:26.273Z,100573.95
2017-07-08T09:59:55.320Z,100571.92
2017-07-08T10:02:24.405Z,100570.03
2017-07-08T10:04:53.879Z,100567.40
2017-07-08T10:07:22.934Z,100571.88
2017-07-08T10:09:52.024Z,100574.17
2017-07-08T10:12:22.135Z,100571.08
2017-07-08T10:14:51.220Z,100569.78
2017-07-08T10:17:20.309Z,100563.45
2017-07-08T10:19:49.377Z,100566.30
2017-07-08T10:22:18.467Z,100572.89
2017-07-08T10:24:47.540Z,100570.67
2017-07-08T10:27:16.625Z,100559.94
2017-07-08T10:29:45.697Z,100569.39
2017-07-08T10:32:14.763Z,100573.09
2017-07-08T10:34:43.858Z,100569.94
2017-07-08T10:37:13.012Z,100563.55
2017-07-08T10:39:42.063Z,100564.52
2017-07-08T10:42:11.237Z,100563.85
2017-07-08T10:44:40.290Z,100553.70
2017-07-08T10:47:09.369Z,100558.21
2017-07-08T10:49:38.436Z,100554.86
2017-07-08T10:52:07.514Z,100553.94
2017-07-08T10:54:36.649Z,100555.31
2017-07-08T10:57:05.723Z,100555.95
2017-07-08T10:59:34.767Z,100546.29
2017-07-08T11:02:03.872Z,100549.21
2017-07-08T11:04:32.912Z,100549.59
2017-07-08T11:07:01.977Z,100551.55
2017-07-08T11:09:31.061Z,100551.53
2017-07-08T11:12:00.126Z,100550.81
2017-07-08T11:14:29.192Z,100547.54
2017-07-08T11:16:58.473Z,100544.63
2017-07-08T11:19:27.536Z,100548.11
2017-07-08T11:21:56.644Z,100542.08
2017-07-08T11:24:25.688Z,100544.50
2017-07-08T11:26:54.786Z,100542.81
2017-07-08T11:29:23.844Z,100537.12
2017-07-08T11:31:52.922Z,100539.20
2017-07-08T11:34:22.001Z,100531.59
2017-07-08T11:36:51.055Z,100531.48
2017-07-08T11:42:37.976Z,100530.69
2017-07-08T11:45:07.056Z,100531.15
2017-07-08T11:47:36.089Z,100527.22
2017-07-08T11:50:05.143Z,100530.34
2017-07-08T11:52:34.387Z,100525.88
2017-07-08T11:55:03.428Z,100523.77
2017-07-08T11:57:32.546Z,100526.16
2017-07-08T12:00:01.682Z,100529.41
2017-07-08T12:02:30.747Z,100524.39
2017-07-08T12:04:59.836Z,100528.83
2017-07-08T12:07:28.927Z,100531.70
2017-07-08T12:09:58.034Z,100525.00
2017-07-08T12:12:27.072Z,100525.00
2017-07-08T12:14:56.149Z,100516.91
2017-07-08T12:17:25.216Z,100521.70
2017-07-08T12:19:54.295Z,100509.34
2017-07-08T12:22:23.413Z,100501.70
2017-07-08T12:24:52.537Z,100507.94
2017-07-08T12:27:21.584Z,100500.97
2017-07-08T12:29:50.711Z,100496.65
2017-07-08T12:32:19.791Z,100494.52
2017-07-08T12:34:48.833Z,100493.63
2017-07-08T12:37:17.885Z,100502.74
2017-07-08T12:39:46.969Z,100496.50
2017-07-08T12:42:16.051Z,100498.52
2017-07-08T12:44:45.116Z,100496.97
2017-07-08T12:47:14.221Z,100495.38
2017-07-08T12:49:43.432Z,100491.74
2017-07-08T12:52:12.517Z,100491.99
2017-07-08T12:54:41.693Z,100488.36
2017-07-08T12:57:10.748Z,100489.22
2017-07-08T12:59:39.845Z,100479.80
2017-07-08T13:02:08.932Z,100485.96
2017-07-08T13:04:37.997Z,100477.75
2017-07-08T13:07:07.049Z,100476.93
2017-07-08T13:09:36.152Z,100475.47
2017-07-08T13:12:05.239Z,100473.27
2017-07-08T13:14:34.324Z,100474.92
2017-07-08T13:17:03.414Z,100472.77
2017-07-08T13:19:32.487Z,100482.80
2017-07-08T13:22:01.628Z,100472.66
2017-07-08T13:24:30.708Z,100475.86
2017-07-08T13:26:59.787Z,100478.11
2017-07-08T13:29:28.837Z,100476.42
2017-07-08T13:31:57.917Z,100475.75
2017-07-08T13:34:26.987Z,100469.88
2017-07-08T13:36:56.037Z,100471.44
2017-07-08T13:39:25.101Z,100469.34
2017-07-08T13:41:54.162Z,100464.55
2017-07-08T13:44:23.219Z,100466.81
2017-07-08T13:46:52.321Z,100472.45
2017-07-08T13:49:21.383Z,100470.23
2017-07-08T13:51:50.427Z,100470.84
2017-07-08T13:54:19.464Z,100461.92
2017-07-08T13:56:48.544Z,100467.06
2017-07-08T13:59:17.596Z,100467.91
2017-07-08T14:01:46.672Z,100463.09
2017-07-08T14:04:15.732Z,100452.36
2017-07-08T14:06:44.808Z,100454.30
2017-07-08T14:09:13.880Z,100450.29
2017-07-08T14:11:42.983Z,100452.14
2017-07-08T14:14:12.061Z,100455.09
2017-07-08T14:16:41.139Z,100453.82
2017-07-08T14:19:10.706Z,100451.77
2017-07-08T14:21:39.978Z,100447.76
2017-07-08T14:24:09.277Z,100443.41
2017-07-08T14:26:38.524Z,100436.53
2017-07-08T14:29:07.747Z,100437.39
2017-07-08T14:31:36.831Z,100439.00
2017-07-08T14:34:05.989Z,100440.87
2017-07-08T14:36:35.037Z,100435.91
2017-07-08T14:39:04.136Z,100439.91
2017-07-08T14:41:33.223Z,100440.87
2017-07-08T14:44:02.275Z,100437.52
2017-07-08T14:46:31.333Z,100431.98
2017-07-08T14:49:00.776Z,100442.27
2017-07-08T14:51:29.850Z,100437.00
2017-07-08T14:53:58.931Z,100427.92
2017-07-08T14:56:28.004Z,100424.38
2017-07-08T14:58:57.117Z,100419.66
2017-07-08T15:01:26.196Z,100417.92
2017-07-08T15:03:55.324Z,100411.56
2017-07-08T15:06:24.419Z,100412.44
2017-07-08T15:08:53.476Z,100419.64
2017-07-08T15:11:22.562Z,100413.56
2017-07-08T15:13:52.509Z,100406.59
2017-07-08T15:16:21.612Z,100403.28
2017-07-08T15:18:50.692Z,100402.05
2017-07-08T15:21:19.780Z,100398.48
2017-07-08T15:23:48.847Z,100393.29
2017-07-08T15:26:17.910Z,100390.09
2017-07-08T15:28:46.999Z,100391.19
2017-07-08T15:31:16.074Z,100390.63
2017-07-08T15:33:45.121Z,100382.50
2017-07-08T15:36:14.188Z,100380.17
2017-07-08T15:38:43.300Z,100384.41
2017-07-08T15:41:12.388Z,100372.23
2017-07-08T15:43:41.480Z,100375.69
2017-07-08T15:46:10.565Z,100374.62
2017-07-08T15:48:39.617Z,100382.02
2017-07-08T15:51:08.679Z,100380.28
2017-07-08T15:53:37.757Z,100386.94
2017-07-08T15:56:06.821Z,100386.88
2017-07-08T15:58:35.929Z,100378.52
2017-07-08T16:01:04.987Z,100385.09
2017-07-08T16:03:34.083Z,100385.31
2017-07-08T16:06:03.227Z,100383.52
2017-07-08T16:08:32.287Z,100382.86
2017-07-08T16:11:01.358Z,100380.81
2017-07-08T16:13:30.438Z,100377.72
2017-07-08T16:15:59.489Z,100377.72
2017-07-08T16:18:28.560Z,100376.37
2017-07-08T16:20:57.621Z,100373.72
2017-07-08T16:23:26.707Z,100372.58
2017-07-08T16:25:55.789Z,100375.37
2017-07-08T16:28:24.850Z,100373.58
2017-07-08T16:30:53.930Z,100366.66
2017-07-08T16:33:23.004Z,100370.19
2017-07-08T16:35:52.114Z,100367.36
2017-07-08T16:38:21.160Z,100362.22
2017-07-08T16:40:50.416Z,100359.52
2017-07-08T16:43:19.640Z,100365.17
2017-07-08T16:45:48.721Z,100368.79
2017-07-08T16:48:17.833Z,100369.19
2017-07-08T16:50:46.924Z,100374.88
2017-07-08T16:53:16.053Z,100370.48
2017-07-08T16:55:45.127Z,100372.66
2017-07-08T16:58:14.191Z,100370.88
2017-07-08T17:00:43.333Z,100377.88
2017-07-08T17:03:12.405Z,100379.31
2017-07-08T17:05:41.474Z,100387.87
2017-07-08T17:08:10.704Z,100388.23
2017-07-08T17:10:39.794Z,100395.09
2017-07-08T17:13:09.198Z,100394.41
2017-07-08T17:15:38.298Z,100395.27
2017-07-08T17:18:07.395Z,100396.73
2017-07-08T17:20:36.460Z,100393.30
2017-07-08T17:23:05.559Z,100402.73
2017-07-08T17:25:34.649Z,100393.80
2017-07-08T17:28:03.744Z,100396.05
2017-07-08T17:30:32.795Z,100399.98
2017-07-08T17:33:01.906Z,100401.44
2017-07-08T17:35:31.002Z,100399.69
2017-07-08T17:38:00.128Z,100403.28
2017-07-08T17:40:29.357Z,100408.42
2017-07-08T17:42:58.459Z,100406.89
2017-07-08T17:45:27.529Z,100407.67
2017-07-08T17:47:56.856Z,100407.31
2017-07-08T17:50:25.940Z,100405.53
2017-07-08T17:52:55.033Z,100407.73
2017-07-08T17:55:24.048Z,100406.30
2017-07-08T17:57:53.119Z,100404.36
2017-07-08T18:00:22.186Z,100411.73
2017-07-08T18:02:51.234Z,100409.31
2017-07-08T18:05:20.345Z,100401.70
2017-07-08T18:07:49.408Z,100406.69
2017-07-08T18:10:18.512Z,100402.39
2017-07-08T18:12:47.580Z,100397.10
2017-07-08T18:15:16.666Z,100395.53
2017-07-08T18:17:45.730Z,100396.37
2017-07-08T18:20:14.789Z,100394.62
2017-07-08T18:22:43.854Z,100397.77
2017-07-08T18:25:12.910Z,100397.80
2017-07-08T18:27:41.996Z,100394.02
2017-07-08T18:30:11.165Z,100397.28
2017-07-08T18:32:40.244Z,100394.77
2017-07-08T18:35:09.338Z,100395.03
2017-07-08T18:37:38.404Z,100400.06
2017-07-08T18:40:07.742Z,100397.13
2017-07-08T18:42:36.804Z,100397.70
2017-07-08T18:45:05.887Z,100401.09
2017-07-08T18:47:34.936Z,100393.59
2017-07-08T18:50:04.015Z,100400.77
2017-07-08T18:52:33.064Z,100399.83
2017-07-08T18:55:02.173Z,100399.44
2017-07-08T18:57:31.201Z,100391.35
2017-07-08T19:00:00.252Z,100393.95
2017-07-08T19:02:29.323Z,100393.16
2017-07-08T19:04:58.382Z,100404.92
2017-07-08T19:07:27.444Z,100399.73
2017-07-08T19:09:56.521Z,100398.39
2017-07-08T19:12:25.590Z,100403.98
2017-07-08T19:14:54.674Z,100402.20
2017-07-08T19:17:23.715Z,100404.77
2017-07-08T19:19:52.788Z,100409.38
2017-07-08T19:22:21.893Z,100401.63
2017-07-08T19:24:50.974Z,100404.67
2017-07-08T19:27:20.016Z,100401.31
2017-07-08T19:29:49.127Z,100404.90
2017-07-08T19:32:18.335Z,100403.95
2017-07-08T19:34:47.386Z,100417.28
2017-07-08T19:37:16.520Z,100416.90
2017-07-08T19:39:45.826Z,100409.77
2017-07-08T19:42:14.891Z,100414.77
2017-07-08T19:44:43.964Z,100414.00
2017-07-08T19:47:13.022Z,100415.02
2017-07-08T19:49:42.370Z,100409.52
2017-07-08T19:52:11.434Z,100406.96
2017-07-08T19:54:40.497Z,100411.56
2017-07-08T19:57:09.578Z,100417.71
2017-07-08T19:59:38.682Z,100417.34
2017-07-08T20:02:07.789Z,100413.02
2017-07-08T20:04:36.885Z,100412.47
2017-07-08T20:07:05.976Z,100420.63
2017-07-08T20:09:35.083Z,100419.28
2017-07-08T20:12:04.168Z,100423.66
2017-07-08T20:14:33.267Z,100419.95
2017-07-08T20:17:02.340Z,100424.71
2017-07-08T20:19:31.468Z,100428.09
2017-07-08T20:22:00.548Z,100431.48
2017-07-08T20:24:29.601Z,100428.72
2017-07-08T20:26:58.666Z,100432.11
2017-07-08T20:29:27.752Z,100438.24
2017-07-08T20:31:56.833Z,100440.66
2017-07-08T20:34:25.872Z,100435.12
2017-07-08T20:36:54.952Z,100438.89
2017-07-08T20:39:24.025Z,100446.84
2017-07-08T20:41:53.118Z,100443.86
2017-07-08T20:44:22.200Z,100444.89
2017-07-08T20:46:51.261Z,100453.42
2017-07-08T20:49:20.347Z,100454.80
2017-07-08T20:51:49.425Z,100460.14
2017-07-08T20:54:18.494Z,100462.91
2017-07-08T20:56:47.564Z,100459.72
2017-07-08T20:59:16.629Z,100465.88
2017-07-08T21:01:45.724Z,100467.66
2017-07-08T21:04:14.779Z,100475.39
2017-07-08T21:06:44.119Z,100474.98
2017-07-08T21:09:13.212Z,100470.05
2017-07-08T21:11:42.345Z,100473.41
2017-07-08T21:14:11.460Z,100469.06
2017-07-08T21:16:40.534Z,100477.59
2017-07-08T21:19:09.659Z,100478.78
2017-07-08T21:21:38.708Z,100477.20
2017-07-08T21:24:07.884Z,100475.62
2017-07-08T21:26:36.984Z,100472.06
2017-07-08T21:29:06.076Z,100476.02
2017-07-08T21:31:35.148Z,100471.48
2017-07-08T21:34:04.245Z,100474.25
2017-07-08T21:36:33.351Z,100476.23
2017-07-08T21:39:02.457Z,100480.96
2017-07-08T21:41:31.517Z,100487.70
2017-07-08T21:44:00.607Z,100492.04
2017-07-08T21:46:29.690Z,100490.26
2017-07-08T21:48:58.744Z,100485.70
2017-07-08T21:51:27.937Z,100474.42
2017-07-08T21:53:57.009Z,100476.00
2017-07-08T21:56:26.108Z,100481.14
2017-07-08T21:58:55.179Z,100486.50
2017-07-08T22:01:24.476Z,100483.89
2017-07-08T22:03:53.530Z,100484.47
2017-07-08T22:06:22.598Z,100475.95
2017-07-08T22:08:51.695Z,100478.13
2017-07-08T22:11:20.764Z,100478.12
2017-07-08T22:13:51.023Z,100480.48
2017-07-08T22:16:20.106Z,100477.83
2017-07-08T22:18:49.188Z,100481.19
2017-07-08T22:21:18.410Z,100484.75
2017-07-08T22:23:47.488Z,100490.25
2017-07-08T22:26:16.579Z,100485.71
2017-07-08T22:28:45.649Z,100487.07
2017-07-08T22:31:14.746Z,100491.19
2017-07-08T22:33:43.817Z,100495.14
2017-07-08T22:36:12.882Z,100492.55
2017-07-08T22:38:41.966Z,100490.56
2017-07-08T22:41:11.049Z,100489.58
2017-07-08T22:43:40.133Z,100484.64
2017-07-08T22:46:09.244Z,100483.06
2017-07-08T22:48:38.512Z,100490.20
2017-07-08T22:51:07.622Z,100485.27
2017-07-08T22:53:36.705Z,100476.54
2017-07-08T22:56:05.807Z,100478.29
2017-07-08T22:58:34.861Z,100475.52
2017-07-08T23:01:03.978Z,100465.62
2017-07-08T23:03:33.021Z,100473.09
2017-07-08T23:06:02.136Z,100474.67
2017-07-08T23:08:31.209Z,100464.20
2017-07-08T23:11:00.304Z,100457.06
2017-07-08T23:13:29.356Z,100460.19
2017-07-08T23:15:58.441Z,100452.88
2017-07-08T23:18:27.543Z,100460.34
2017-07-08T23:20:56.642Z,100461.53
2017-07-08T23:23:25.724Z,100467.57
2017-07-08T23:25:54.802Z,100471.68
2017-07-08T23:28:23.879Z,100465.13
2017-07-08T23:30:52.937Z,100460.19
2017-07-08T23:33:22.056Z,100462.55
2017-07-08T23:35:51.192Z,100463.14
2017-07-08T23:38:20.244Z,100460.58
2017-07-08T23:40:49.316Z,100463.09
2017-07-08T23:43:18.447Z,100455.59
2017-07-08T23:45:47.529Z,100443.51
2017-07-08T23:48:16.849Z,100447.25
2017-07-08T23:50:45.913Z,100447.02
2017-07-08T23:53:15.011Z,100446.42
2017-07-08T23:55:44.072Z,100452.55
2017-07-08T23:58:13.224Z,100451.11
